Flight Track Log - Related Links

Times and Time Zones

All times are in EDT time to prevent confusion due to time zone crossing. See the N315CK flight status page for this flight to view local times or setup timezone preferences in your user account.

Time Position Orientation Groundspeed Altitude Reporting Facility
EDT Latitude Longitude Course Direction KTS MPH feet Rate Location/Type
Thu 11:35:23 AM 41.7697 -86.2447 64° Northeast 133 153 4,300  Level Chicago Center
Thu 11:36:25 AM 41.7817 -86.1956 72° East 138 159 5,100 726 Climbing Chicago Center
Thu 11:37:27 AM 41.8014 -86.1461 62° Northeast 148 170 5,800 726 Climbing Chicago Center
Thu 11:38:00 AM 41.8198 -85.9950 65° Northeast  Level Estimated
Thu 11:38:29 AM 41.8172 -86.0975 66° East 144 166 6,600  Level Chicago Center
Thu 11:39:00 AM 41.8383 -85.9412 65° Northeast  Level Estimated
Thu 11:39:31 AM 41.8342 -86.0467 66° East 148 170 7,300  Level Chicago Center
Thu 11:40:33 AM 41.8519 -85.9928 66° East 157 181 7,800 435 Climbing Chicago Center
Thu 11:41:35 AM 41.8700 -85.9375 66° East 162 186 8,200 435 Climbing Chicago Center
Thu 11:42:37 AM 41.8944 -85.8658 65° Northeast 175 201 8,700 484 Climbing Chicago Center
Thu 11:43:39 AM 41.9139 -85.8056 67° East 177 204 9,200 484 Climbing Chicago Center
Thu 11:44:41 AM 41.9325 -85.7478 67° East 171 197 9,700 145 Climbing Chicago Center
Thu 11:45:43 AM 41.9539 -85.6847 65° Northeast 178 205 9,500 -145 Descending Chicago Center
Thu 11:46:45 AM 41.9764 -85.6150 67° East 195 224 9,400 -48 Descending Chicago Center
Thu 11:47:47 AM 41.9992 -85.5469 66° East 198 228 9,400  Level Chicago Center
Thu 11:48:49 AM 42.0264 -85.4636 66° East 202 232 9,400  Level Chicago Center
Thu 11:49:51 AM 42.0486 -85.3947 67° East 202 232 9,400  Level Chicago Center
Thu 11:50:53 AM 42.0708 -85.3269 66° East 199 229 9,400  Level Chicago Center
Thu 11:51:55 AM 42.0931 -85.2583 66° East 200 230 9,400  Level Chicago Center
Thu 11:52:57 AM 42.1147 -85.1908 67° East 197 227 9,400  Level Chicago Center
Thu 11:53:59 AM 42.1361 -85.1228 67° East 197 227 9,400  Level Chicago Center
Thu 11:55:01 AM 42.1581 -85.0558 66° East 196 226 9,400  Level Chicago Center
Thu 11:56:03 AM 42.1842 -84.9742 67° East 197 227 9,400  Level Chicago Center
Thu 11:57:05 AM 42.2050 -84.9100 66° East 198 228 9,400  Level Chicago Center
Thu 11:59:00 AM 42.2115 -84.7816 66° East  Level FlightAware Approximate
Thu 12:06:00 PM 42.3451 -84.3720 66° East  Level FlightAware Approximate
Thu 12:07:00 PM 42.3641 -84.3133 66° East  Level FlightAware Approximate
Thu 12:08:00 PM 42.3830 -84.2546 66° East  Level FlightAware Approximate
Thu 12:09:00 PM 42.4019 -84.1958 66° East  Level FlightAware Approximate
Thu 12:10:00 PM 42.4210 -84.1372 66° East  Level FlightAware Approximate
Thu 12:11:00 PM 42.4420 -84.0798 60° Northeast  Level FlightAware Approximate
Thu 12:12:00 PM 42.4658 -84.0244 60° Northeast  Level FlightAware Approximate
Thu 12:13:00 PM 42.4876 -83.9677 70° East  Level FlightAware Approximate
Thu 12:14:00 PM 42.5041 -83.9075 70° East  Level FlightAware Approximate
Thu 12:15:00 PM 42.5205 -83.8473 70° East  Level FlightAware Approximate
Thu 12:16:00 PM 42.5382 -83.7878 61° Northeast  Level FlightAware Approximate
Thu 12:17:00 PM 42.5608 -83.7314 61° Northeast  Level FlightAware Approximate
Thu 12:18:00 PM 42.5779 -83.6717 71° East  Level FlightAware Approximate
Thu 12:19:00 PM 42.5959 -83.6123 66° East  Level FlightAware Approximate
Thu 12:20:00 PM 42.6155 -83.5538 66° East  Level FlightAware Approximate
Thu 12:21:00 PM 42.6350 -83.4952 66° East  Level FlightAware Approximate
Thu 12:22:00 PM 42.6500 -83.4353 90° East  Level FlightAware Approximate
Thu 12:23:00 PM 42.6500 -83.4167 90° East  Level FlightAware Approximate
Thu 12:24:00 PM 42.6656 -83.4205 90° East  Level Estimated
Thu 12:25:00 PM 42.6656 -83.4205 90° East  Level Estimated
Thu 12:26:00 PM 42.6656 -83.4205 90° East  Level Estimated
Thu 12:27:00 PM 42.6656 -83.4205 90° East  Level Estimated
Thu 12:28:00 PM 42.6656 -83.4205 90° East  Level Estimated
Thu 12:29:00 PM 42.6656 -83.4205 90° East  Level Estimated
Thu 12:30:00 PM 42.6656 -83.4205 90° East  Level Estimated
Thu 12:31:00 PM 42.6656 -83.4205 90° East  Level Estimated
Thu 12:32:00 PM 42.6656 -83.4205 90° East  Level Estimated
Thu 12:33:00 PM 42.6656 -83.4205 90° East  Level Estimated
Thu 12:34:00 PM 42.6656 -83.4205 90° East  Level Estimated
Thu 12:35:00 PM 42.6656 -83.4205 90° East  Level Estimated
Thu 12:36:00 PM 42.6656 -83.4205 90° East  Level Estimated
Thu 12:37:00 PM 42.6656 -83.4205 90° East  Level Estimated

Login

Don't have an account? Register now (free) for customized features, flight alerts, and more!